Historique des mesures à Cassis (13260), France
Quotidien Résumé Décembre 6, 2018 Unités:  Métrique    US   Métrique/US
« Précédent (Jour)
Suivant (Jour) »
Quotidien Hebdomadaire Mensuel Annuel Période au choix
  Maximum: Minimum: Moyenne:
Température: TemperatureC °C 11.6 °C 13.8 °C
Point de rosée: DewpointC °C 7.9 °C 8.8 °C
Humidité: Humidity % 61 % 69 %
Vitesse du vent: 0 km/h 0 km/h 11.4 km/h
Rafales: 0 km/h - -
Vent:- - WSW
Pression: PressurehPa hPa 1016.7 hPa -
Précipitations: 0.0 mm    
Historical Graphs
 
 
Mesures pour : Décembre 6, 2018
Heure Temperature Point de rosée Pression Vent Vitesse du vent Rafales Humidité Pluie (par heure) Conditions
TemperatureC °C DewpointC °C PressurehPa hPa Calm     Humidity % HourlyPrecipMM mm SoftwareType W/m2
00:10 13.3 °C 10.3 °C 1020.4 hPa Calm   3.5 km/h 82 % 0.0 mm open2300-1.11 W/m2
01:10 12.7 °C 9.7 °C 1019.4 hPa North 2.3 km/h 2.3 km/h 82 % 0.0 mm open2300-1.11 W/m2
02:10 12.2 °C 9.2 °C 1018.9 hPa NW 6.4 km/h 6.4 km/h 82 % 0.0 mm open2300-1.11 W/m2
03:10 12.1 °C 9.5 °C 1019.0 hPa North 3.5 km/h 5.1 km/h 84 % 0.0 mm open2300-1.11 W/m2
04:10 11.6 °C 8.8 °C 1018.5 hPa NNW 2.9 km/h 8.7 km/h 83 % 0.0 mm open2300-1.11 W/m2
05:10 11.7 °C 8.9 °C 1018.2 hPa WNW 7.6 km/h 15.6 km/h 83 % 0.0 mm open2300-1.11 W/m2
06:10 12.5 °C 9.7 °C 1017.9 hPa WNW 2.3 km/h 3.5 km/h 83 % 0.0 mm open2300-1.11 W/m2
07:10 13.1 °C 9.5 °C 1017.6 hPa WNW 6.4 km/h 8 km/h 79 % 0.0 mm open2300-1.11 W/m2
08:10 13.8 °C 9.0 °C 1017.6 hPa WNW 30.7 km/h 30.7 km/h 73 % 0.0 mm open2300-1.11 W/m2
09:10 14.6 °C 8.7 °C 1017.9 hPa WSW 10.9 km/h 19.2 km/h 68 % 0.0 mm open2300-1.11 W/m2
10:10 14.7 °C 8.6 °C 1018.1 hPa North 16.7 km/h 40.6 km/h 67 % 0.0 mm open2300-1.11 W/m2
11:10 15.2 °C 8.6 °C 1017.8 hPa NNW 38.8 km/h 38.8 km/h 65 % 0.0 mm open2300-1.11 W/m2
12:10 15.9 °C 9.1 °C 1017.0 hPa WNW 19.2 km/h 41.2 km/h 64 % 0.0 mm open2300-1.11 W/m2
13:10 16.2 °C 9.6 °C 1017.0 hPa NW 9.3 km/h 23.2 km/h 65 % 0.0 mm open2300-1.11 W/m2
14:10 17.0 °C 9.7 °C 1016.7 hPa WNW 45.7 km/h 45.7 km/h 62 % 0.0 mm open2300-1.11 W/m2
15:10 17.4 °C 9.8 °C 1016.8 hPa West 30.7 km/h 30.7 km/h 61 % 0.0 mm open2300-1.11 W/m2
16:10 17.1 °C 9.8 °C 1017.7 hPa West 6.4 km/h 12.7 km/h 62 % 0.0 mm open2300-1.11 W/m2
17:10 16.4 °C 9.4 °C 1017.3 hPa WNW 23.2 km/h 23.2 km/h 63 % 0.0 mm open2300-1.11 W/m2
18:10 15.9 °C 9.6 °C 1018.1 hPa NNW 6.9 km/h 22.5 km/h 66 % 0.0 mm open2300-1.11 W/m2
19:10 15.3 °C 9.2 °C 1018.1 hPa NNW 5.1 km/h 13.4 km/h 67 % 0.0 mm open2300-1.11 W/m2
20:10 15.3 °C 9.0 °C 1018.4 hPa North 2.3 km/h 6.4 km/h 66 % 0.0 mm open2300-1.11 W/m2
21:10 14.5 °C 8.6 °C 1018.8 hPa Calm     68 % 0.0 mm open2300-1.11 W/m2
22:10 13.6 °C 8.2 °C 1019.3 hPa Calm   2.3 km/h 70 % 0.0 mm open2300-1.11 W/m2
23:10 12.8 °C 7.9 °C 1019.1 hPa WNW 6.9 km/h 6.9 km/h 72 % 0.0 mm open2300-1.11 W/m2
Observations météo à CASSIS
WU-History script by Weather Underground - 1 mb